sensor_id;sensor_type;location;lat;lon;timestamp;temperature;humidity
31759;DHT22;36334;51.366;0.020;2022-11-03T00:02:37;13.50;99.90
31759;DHT22;36334;51.366;0.020;2022-11-03T00:05:23;13.40;99.90
31759;DHT22;36334;51.366;0.020;2022-11-03T00:08:28;13.40;99.90
31759;DHT22;36334;51.366;0.020;2022-11-03T00:11:14;13.40;99.90
31759;DHT22;36334;51.366;0.020;2022-11-03T00:14:01;13.20;99.90
31759;DHT22;36334;51.366;0.020;2022-11-03T00:16:48;13.20;99.90
31759;DHT22;36334;51.366;0.020;2022-11-03T00:19:34;13.10;99.90
31759;DHT22;36334;51.366;0.020;2022-11-03T00:22:20;13.10;99.90
31759;DHT22;36334;51.366;0.020;2022-11-03T00:25:06;13.00;99.90
31759;DHT22;36334;51.366;0.020;2022-11-03T00:27:55;12.90;99.90
31759;DHT22;36334;51.366;0.020;2022-11-03T00:30:42;12.80;99.90
31759;DHT22;36334;51.366;0.020;2022-11-03T00:33:33;12.80;99.90
31759;DHT22;36334;51.366;0.020;2022-11-03T00:36:22;12.70;99.90
31759;DHT22;36334;51.366;0.020;2022-11-03T00:39:08;12.60;99.90
31759;DHT22;36334;51.366;0.020;2022-11-03T00:41:55;12.50;99.90
31759;DHT22;36334;51.366;0.020;2022-11-03T00:44:41;12.50;99.90
31759;DHT22;36334;51.366;0.020;2022-11-03T00:47:27;12.40;99.90
31759;DHT22;36334;51.366;0.020;2022-11-03T00:50:13;12.40;99.90
31759;DHT22;36334;51.366;0.020;2022-11-03T00:52:59;12.40;99.90
31759;DHT22;36334;51.366;0.020;2022-11-03T00:55:49;12.40;99.90
31759;DHT22;36334;51.366;0.020;2022-11-03T00:58:37;12.30;99.90
31759;DHT22;36334;51.366;0.020;2022-11-03T01:01:28;12.20;99.90
31759;DHT22;36334;51.366;0.020;2022-11-03T01:04:16;12.20;99.90
31759;DHT22;36334;51.366;0.020;2022-11-03T01:07:21;12.10;99.90
31759;DHT22;36334;51.366;0.020;2022-11-03T01:10:07;12.10;99.90
31759;DHT22;36334;51.366;0.020;2022-11-03T01:12:56;12.10;99.90
31759;DHT22;36334;51.366;0.020;2022-11-03T01:15:43;12.10;99.90
31759;DHT22;36334;51.366;0.020;2022-11-03T01:18:29;12.10;99.90
31759;DHT22;36334;51.366;0.020;2022-11-03T01:21:16;12.10;99.90
31759;DHT22;36334;51.366;0.020;2022-11-03T01:24:04;12.10;99.90
31759;DHT22;36334;51.366;0.020;2022-11-03T01:26:51;12.10;99.90
31759;DHT22;36334;51.366;0.020;2022-11-03T01:29:49;12.10;99.90
31759;DHT22;36334;51.366;0.020;2022-11-03T01:32:41;12.10;99.90
31759;DHT22;36334;51.366;0.020;2022-11-03T01:35:27;12.10;99.90
31759;DHT22;36334;51.366;0.020;2022-11-03T01:38:12;12.10;99.90
31759;DHT22;36334;51.366;0.020;2022-11-03T01:41:00;12.10;99.90
31759;DHT22;36334;51.366;0.020;2022-11-03T01:44:03;12.10;99.90
31759;DHT22;36334;51.366;0.020;2022-11-03T01:50:06;12.10;99.90
31759;DHT22;36334;51.366;0.020;2022-11-03T01:52:57;12.10;99.90
31759;DHT22;36334;51.366;0.020;2022-11-03T01:55:45;12.10;99.90
31759;DHT22;36334;51.366;0.020;2022-11-03T01:58:34;12.20;99.90
31759;DHT22;36334;51.366;0.020;2022-11-03T02:01:21;12.20;99.90
31759;DHT22;36334;51.366;0.020;2022-11-03T02:04:17;12.20;99.90
31759;DHT22;36334;51.366;0.020;2022-11-03T02:10:05;12.20;99.90
31759;DHT22;36334;51.366;0.020;2022-11-03T02:12:52;12.20;99.90
31759;DHT22;36334;51.366;0.020;2022-11-03T02:15:39;12.20;99.90
31759;DHT22;36334;51.366;0.020;2022-11-03T02:18:31;12.20;99.90
31759;DHT22;36334;51.366;0.020;2022-11-03T02:21:52;12.30;99.90
31759;DHT22;36334;51.366;0.020;2022-11-03T02:24:51;12.30;99.90
31759;DHT22;36334;51.366;0.020;2022-11-03T02:27:39;12.30;99.90
31759;DHT22;36334;51.366;0.020;2022-11-03T02:30:29;12.30;99.90
31759;DHT22;36334;51.366;0.020;2022-11-03T02:33:44;12.20;99.90
31759;DHT22;36334;51.366;0.020;2022-11-03T02:39:44;12.20;99.90
31759;DHT22;36334;51.366;0.020;2022-11-03T02:42:31;12.20;99.90
31759;DHT22;36334;51.366;0.020;2022-11-03T02:45:21;12.20;99.90
31759;DHT22;36334;51.366;0.020;2022-11-03T02:48:10;12.20;99.90
31759;DHT22;36334;51.366;0.020;2022-11-03T02:50:57;12.20;99.90
31759;DHT22;36334;51.366;0.020;2022-11-03T02:54:07;12.30;99.90
31759;DHT22;36334;51.366;0.020;2022-11-03T02:57:01;12.30;99.90
31759;DHT22;36334;51.366;0.020;2022-11-03T02:59:59;12.30;99.90
31759;DHT22;36334;51.366;0.020;2022-11-03T03:02:52;12.30;99.90
31759;DHT22;36334;51.366;0.020;2022-11-03T03:05:41;12.40;99.90
31759;DHT22;36334;51.366;0.020;2022-11-03T03:08:29;12.40;99.90
31759;DHT22;36334;51.366;0.020;2022-11-03T03:11:16;12.40;99.90
31759;DHT22;36334;51.366;0.020;2022-11-03T03:14:45;12.40;99.90
31759;DHT22;36334;51.366;0.020;2022-11-03T03:20:57;12.50;99.90
31759;DHT22;36334;51.366;0.020;2022-11-03T03:23:56;12.50;99.90
31759;DHT22;36334;51.366;0.020;2022-11-03T03:26:47;12.50;99.90
31759;DHT22;36334;51.366;0.020;2022-11-03T03:32:48;12.50;99.90
31759;DHT22;36334;51.366;0.020;2022-11-03T03:35:38;12.50;99.90
31759;DHT22;36334;51.366;0.020;2022-11-03T03:38:33;12.50;99.90
31759;DHT22;36334;51.366;0.020;2022-11-03T03:41:21;12.50;99.90
31759;DHT22;36334;51.366;0.020;2022-11-03T03:44:10;12.60;99.90
31759;DHT22;36334;51.366;0.020;2022-11-03T03:47:00;12.60;99.90
31759;DHT22;36334;51.366;0.020;2022-11-03T03:49:49;12.60;99.90
31759;DHT22;36334;51.366;0.020;2022-11-03T03:52:36;12.60;99.90
31759;DHT22;36334;51.366;0.020;2022-11-03T03:55:29;12.60;99.90
31759;DHT22;36334;51.366;0.020;2022-11-03T03:58:16;12.60;99.90
31759;DHT22;36334;51.366;0.020;2022-11-03T04:01:02;12.70;99.90
31759;DHT22;36334;51.366;0.020;2022-11-03T04:03:48;12.70;99.90
31759;DHT22;36334;51.366;0.020;2022-11-03T04:06:34;12.70;99.90
31759;DHT22;36334;51.366;0.020;2022-11-03T04:09:20;12.70;99.90
31759;DHT22;36334;51.366;0.020;2022-11-03T04:12:07;12.70;99.90
31759;DHT22;36334;51.366;0.020;2022-11-03T04:15:12;12.70;99.90
31759;DHT22;36334;51.366;0.020;2022-11-03T04:18:18;12.70;99.90
31759;DHT22;36334;51.366;0.020;2022-11-03T04:21:23;12.70;99.90
31759;DHT22;36334;51.366;0.020;2022-11-03T04:24:27;12.80;99.90
31759;DHT22;36334;51.366;0.020;2022-11-03T04:27:34;12.80;99.90
31759;DHT22;36334;51.366;0.020;2022-11-03T04:30:21;12.80;99.90
31759;DHT22;36334;51.366;0.020;2022-11-03T04:33:17;12.80;99.90
31759;DHT22;36334;51.366;0.020;2022-11-03T04:36:11;12.80;99.90
31759;DHT22;36334;51.366;0.020;2022-11-03T04:38:58;12.90;99.90
31759;DHT22;36334;51.366;0.020;2022-11-03T04:41:45;12.80;99.90
31759;DHT22;36334;51.366;0.020;2022-11-03T04:44:39;12.90;99.90
31759;DHT22;36334;51.366;0.020;2022-11-03T04:47:25;12.90;99.90
31759;DHT22;36334;51.366;0.020;2022-11-03T04:50:17;12.90;99.90
31759;DHT22;36334;51.366;0.020;2022-11-03T04:53:09;12.90;99.90
31759;DHT22;36334;51.366;0.020;2022-11-03T04:55:56;12.90;99.90
31759;DHT22;36334;51.366;0.020;2022-11-03T04:58:47;12.90;99.90
31759;DHT22;36334;51.366;0.020;2022-11-03T05:01:34;12.90;99.90
31759;DHT22;36334;51.366;0.020;2022-11-03T05:04:20;12.90;99.90
31759;DHT22;36334;51.366;0.020;2022-11-03T05:07:30;12.90;99.90
31759;DHT22;36334;51.366;0.020;2022-11-03T05:10:26;12.90;99.90
31759;DHT22;36334;51.366;0.020;2022-11-03T05:13:24;12.90;99.90
31759;DHT22;36334;51.366;0.020;2022-11-03T05:16:10;13.00;99.90
31759;DHT22;36334;51.366;0.020;2022-11-03T05:18:56;12.90;99.90
31759;DHT22;36334;51.366;0.020;2022-11-03T05:21:42;12.90;99.90
31759;DHT22;36334;51.366;0.020;2022-11-03T05:24:29;12.90;99.90
31759;DHT22;36334;51.366;0.020;2022-11-03T05:27:19;12.90;99.90
31759;DHT22;36334;51.366;0.020;2022-11-03T05:30:11;13.00;99.90
31759;DHT22;36334;51.366;0.020;2022-11-03T05:32:58;12.90;99.90
31759;DHT22;36334;51.366;0.020;2022-11-03T05:35:44;13.00;99.90
31759;DHT22;36334;51.366;0.020;2022-11-03T05:38:32;13.00;99.90
31759;DHT22;36334;51.366;0.020;2022-11-03T05:41:23;13.00;99.90
31759;DHT22;36334;51.366;0.020;2022-11-03T05:44:33;13.00;99.90
31759;DHT22;36334;51.366;0.020;2022-11-03T05:47:37;13.10;99.90
31759;DHT22;36334;51.366;0.020;2022-11-03T05:50:28;13.10;99.90
31759;DHT22;36334;51.366;0.020;2022-11-03T05:53:28;13.10;99.90
31759;DHT22;36334;51.366;0.020;2022-11-03T05:56:20;13.10;99.90
31759;DHT22;36334;51.366;0.020;2022-11-03T05:59:10;13.10;99.90
31759;DHT22;36334;51.366;0.020;2022-11-03T06:01:59;13.20;99.90
31759;DHT22;36334;51.366;0.020;2022-11-03T06:04:46;13.20;99.90
31759;DHT22;36334;51.366;0.020;2022-11-03T06:07:34;13.20;99.90
31759;DHT22;36334;51.366;0.020;2022-11-03T06:10:30;13.30;99.90
31759;DHT22;36334;51.366;0.020;2022-11-03T06:13:33;13.20;99.90
31759;DHT22;36334;51.366;0.020;2022-11-03T06:19:21;13.30;99.90
31759;DHT22;36334;51.366;0.020;2022-11-03T06:22:21;13.30;99.90
31759;DHT22;36334;51.366;0.020;2022-11-03T06:25:27;13.30;99.90
31759;DHT22;36334;51.366;0.020;2022-11-03T06:28:34;13.30;99.90
31759;DHT22;36334;51.366;0.020;2022-11-03T06:31:30;13.30;99.90
31759;DHT22;36334;51.366;0.020;2022-11-03T06:34:33;13.40;99.90
31759;DHT22;36334;51.366;0.020;2022-11-03T06:37:31;13.30;99.90
31759;DHT22;36334;51.366;0.020;2022-11-03T06:43:22;13.20;99.90
31759;DHT22;36334;51.366;0.020;2022-11-03T06:46:21;13.10;99.90
31759;DHT22;36334;51.366;0.020;2022-11-03T06:49:26;13.00;99.90
31759;DHT22;36334;51.366;0.020;2022-11-03T06:58:12;12.60;99.90
31759;DHT22;36334;51.366;0.020;2022-11-03T07:01:13;12.50;99.90
31759;DHT22;36334;51.366;0.020;2022-11-03T07:04:20;12.30;99.90
31759;DHT22;36334;51.366;0.020;2022-11-03T07:07:07;12.10;99.90
31759;DHT22;36334;51.366;0.020;2022-11-03T07:09:54;12.00;99.90
31759;DHT22;36334;51.366;0.020;2022-11-03T07:12:41;11.80;99.90
31759;DHT22;36334;51.366;0.020;2022-11-03T07:15:36;11.70;99.90
31759;DHT22;36334;51.366;0.020;2022-11-03T07:18:38;11.60;99.90
31759;DHT22;36334;51.366;0.020;2022-11-03T07:21:39;11.60;99.90
31759;DHT22;36334;51.366;0.020;2022-11-03T07:24:37;11.50;99.90
31759;DHT22;36334;51.366;0.020;2022-11-03T07:27:30;11.40;99.90
31759;DHT22;36334;51.366;0.020;2022-11-03T07:30:22;11.30;99.90
31759;DHT22;36334;51.366;0.020;2022-11-03T07:33:26;11.30;99.90
31759;DHT22;36334;51.366;0.020;2022-11-03T07:36:19;11.30;99.90
31759;DHT22;36334;51.366;0.020;2022-11-03T07:39:12;11.30;99.90
31759;DHT22;36334;51.366;0.020;2022-11-03T07:42:07;11.30;99.90
31759;DHT22;36334;51.366;0.020;2022-11-03T07:44:57;11.30;99.90
31759;DHT22;36334;51.366;0.020;2022-11-03T07:47:44;11.20;99.90
31759;DHT22;36334;51.366;0.020;2022-11-03T07:50:30;11.20;99.90
31759;DHT22;36334;51.366;0.020;2022-11-03T07:53:20;11.30;99.90
31759;DHT22;36334;51.366;0.020;2022-11-03T07:56:17;11.30;99.90
31759;DHT22;36334;51.366;0.020;2022-11-03T07:59:12;11.30;99.90
31759;DHT22;36334;51.366;0.020;2022-11-03T08:02:00;11.30;99.90
31759;DHT22;36334;51.366;0.020;2022-11-03T08:04:52;11.30;99.90
31759;DHT22;36334;51.366;0.020;2022-11-03T08:07:40;11.30;99.90
31759;DHT22;36334;51.366;0.020;2022-11-03T08:10:31;11.30;99.90
31759;DHT22;36334;51.366;0.020;2022-11-03T08:13:17;11.30;99.90
31759;DHT22;36334;51.366;0.020;2022-11-03T08:16:03;11.30;99.90
31759;DHT22;36334;51.366;0.020;2022-11-03T08:18:51;11.30;99.90
31759;DHT22;36334;51.366;0.020;2022-11-03T08:21:37;11.30;99.90
31759;DHT22;36334;51.366;0.020;2022-11-03T08:24:24;11.30;99.90
31759;DHT22;36334;51.366;0.020;2022-11-03T08:27:10;11.20;99.90
31759;DHT22;36334;51.366;0.020;2022-11-03T08:29:56;11.30;99.90
31759;DHT22;36334;51.366;0.020;2022-11-03T08:32:42;11.30;99.90
31759;DHT22;36334;51.366;0.020;2022-11-03T08:35:28;11.30;99.90
31759;DHT22;36334;51.366;0.020;2022-11-03T08:38:19;11.30;99.90
31759;DHT22;36334;51.366;0.020;2022-11-03T08:41:05;11.30;99.90
31759;DHT22;36334;51.366;0.020;2022-11-03T08:43:51;11.30;99.90
31759;DHT22;36334;51.366;0.020;2022-11-03T08:46:37;11.30;99.90
31759;DHT22;36334;51.366;0.020;2022-11-03T08:49:23;11.30;99.90
31759;DHT22;36334;51.366;0.020;2022-11-03T08:52:08;11.30;99.90
31759;DHT22;36334;51.366;0.020;2022-11-03T08:54:54;11.30;99.90
31759;DHT22;36334;51.366;0.020;2022-11-03T08:57:41;11.30;99.90
31759;DHT22;36334;51.366;0.020;2022-11-03T09:00:27;11.30;99.90
31759;DHT22;36334;51.366;0.020;2022-11-03T09:03:14;11.40;99.90
31759;DHT22;36334;51.366;0.020;2022-11-03T09:06:00;11.40;99.90
31759;DHT22;36334;51.366;0.020;2022-11-03T09:08:46;11.40;99.90
31759;DHT22;36334;51.366;0.020;2022-11-03T09:11:53;11.40;99.90
31759;DHT22;36334;51.366;0.020;2022-11-03T09:14:43;11.40;99.90
31759;DHT22;36334;51.366;0.020;2022-11-03T09:17:29;11.40;99.90
31759;DHT22;36334;51.366;0.020;2022-11-03T09:20:16;11.40;99.90
31759;DHT22;36334;51.366;0.020;2022-11-03T09:23:03;11.40;99.90
31759;DHT22;36334;51.366;0.020;2022-11-03T09:25:49;11.40;99.90
31759;DHT22;36334;51.366;0.020;2022-11-03T09:28:35;11.40;99.90
31759;DHT22;36334;51.366;0.020;2022-11-03T09:31:21;11.40;99.90
31759;DHT22;36334;51.366;0.020;2022-11-03T09:34:08;11.40;99.90
31759;DHT22;36334;51.366;0.020;2022-11-03T09:36:54;11.50;99.90
31759;DHT22;36334;51.366;0.020;2022-11-03T09:39:43;11.50;99.90
31759;DHT22;36334;51.366;0.020;2022-11-03T09:42:30;11.50;99.90
31759;DHT22;36334;51.366;0.020;2022-11-03T09:45:19;11.50;99.90
31759;DHT22;36334;51.366;0.020;2022-11-03T09:48:09;11.50;99.90
31759;DHT22;36334;51.366;0.020;2022-11-03T09:50:56;11.40;99.90
31759;DHT22;36334;51.366;0.020;2022-11-03T09:53:42;11.50;99.90
31759;DHT22;36334;51.366;0.020;2022-11-03T09:56:29;11.50;99.90
31759;DHT22;36334;51.366;0.020;2022-11-03T09:59:17;11.40;99.90
31759;DHT22;36334;51.366;0.020;2022-11-03T10:02:17;11.40;99.90
31759;DHT22;36334;51.366;0.020;2022-11-03T10:05:07;11.40;99.90
31759;DHT22;36334;51.366;0.020;2022-11-03T10:08:02;11.40;99.90
31759;DHT22;36334;51.366;0.020;2022-11-03T10:10:51;11.40;99.90
31759;DHT22;36334;51.366;0.020;2022-11-03T10:13:49;11.30;99.90
31759;DHT22;36334;51.366;0.020;2022-11-03T10:16:41;11.30;99.90
31759;DHT22;36334;51.366;0.020;2022-11-03T10:19:27;11.30;99.90
31759;DHT22;36334;51.366;0.020;2022-11-03T10:22:15;11.30;99.90
31759;DHT22;36334;51.366;0.020;2022-11-03T10:25:27;11.20;99.90
31759;DHT22;36334;51.366;0.020;2022-11-03T10:28:22;11.20;99.90
31759;DHT22;36334;51.366;0.020;2022-11-03T10:31:41;11.20;99.90
31759;DHT22;36334;51.366;0.020;2022-11-03T10:34:39;11.20;99.90
31759;DHT22;36334;51.366;0.020;2022-11-03T10:37:26;11.20;99.90
31759;DHT22;36334;51.366;0.020;2022-11-03T10:40:33;11.20;99.90
31759;DHT22;36334;51.366;0.020;2022-11-03T10:43:33;11.30;99.90
31759;DHT22;36334;51.366;0.020;2022-11-03T10:46:20;11.30;99.90
31759;DHT22;36334;51.366;0.020;2022-11-03T10:49:31;11.30;99.90
31759;DHT22;36334;51.366;0.020;2022-11-03T10:52:22;11.30;99.90
31759;DHT22;36334;51.366;0.020;2022-11-03T10:55:09;11.30;99.90
31759;DHT22;36334;51.366;0.020;2022-11-03T10:57:58;11.30;99.90
31759;DHT22;36334;51.366;0.020;2022-11-03T11:00:44;11.30;99.90
31759;DHT22;36334;51.366;0.020;2022-11-03T11:03:30;11.30;99.90
31759;DHT22;36334;51.366;0.020;2022-11-03T11:06:23;11.40;99.90
31759;DHT22;36334;51.366;0.020;2022-11-03T11:09:12;11.40;99.90
31759;DHT22;36334;51.366;0.020;2022-11-03T11:12:00;11.40;99.90
31759;DHT22;36334;51.366;0.020;2022-11-03T11:14:55;11.40;99.90
31759;DHT22;36334;51.366;0.020;2022-11-03T11:17:45;11.40;99.90
31759;DHT22;36334;51.366;0.020;2022-11-03T11:20:41;11.50;99.90
31759;DHT22;36334;51.366;0.020;2022-11-03T11:31:59;11.60;99.90
31759;DHT22;36334;51.366;0.020;2022-11-03T11:35:10;11.60;99.90
31759;DHT22;36334;51.366;0.020;2022-11-03T11:42:02;11.70;99.90
31759;DHT22;36334;51.366;0.020;2022-11-03T11:47:42;11.80;99.90
31759;DHT22;36334;51.366;0.020;2022-11-03T11:50:29;11.90;99.90
31759;DHT22;36334;51.366;0.020;2022-11-03T11:53:21;11.90;99.90
31759;DHT22;36334;51.366;0.020;2022-11-03T11:56:16;12.00;99.90
31759;DHT22;36334;51.366;0.020;2022-11-03T11:59:02;12.00;99.90
31759;DHT22;36334;51.366;0.020;2022-11-03T12:01:51;12.10;99.90
31759;DHT22;36334;51.366;0.020;2022-11-03T12:04:44;12.20;99.90
31759;DHT22;36334;51.366;0.020;2022-11-03T12:07:32;12.30;99.90
31759;DHT22;36334;51.366;0.020;2022-11-03T12:10:22;12.30;99.90
31759;DHT22;36334;51.366;0.020;2022-11-03T12:13:34;12.30;99.90
31759;DHT22;36334;51.366;0.020;2022-11-03T12:16:34;12.20;99.90
31759;DHT22;36334;51.366;0.020;2022-11-03T12:19:37;12.20;99.90
31759;DHT22;36334;51.366;0.020;2022-11-03T12:25:31;12.10;99.90
31759;DHT22;36334;51.366;0.020;2022-11-03T12:28:34;12.10;99.90
31759;DHT22;36334;51.366;0.020;2022-11-03T12:31:20;12.10;99.90
31759;DHT22;36334;51.366;0.020;2022-11-03T12:34:06;12.10;99.90
31759;DHT22;36334;51.366;0.020;2022-11-03T12:36:52;12.00;99.90
31759;DHT22;36334;51.366;0.020;2022-11-03T12:39:41;12.10;99.90
31759;DHT22;36334;51.366;0.020;2022-11-03T12:42:27;12.20;99.90
31759;DHT22;36334;51.366;0.020;2022-11-03T12:45:13;12.20;99.90
31759;DHT22;36334;51.366;0.020;2022-11-03T12:47:59;12.20;99.90
31759;DHT22;36334;51.366;0.020;2022-11-03T12:50:45;12.20;99.90
31759;DHT22;36334;51.366;0.020;2022-11-03T12:53:31;12.20;99.90
31759;DHT22;36334;51.366;0.020;2022-11-03T12:56:18;12.20;99.90
31759;DHT22;36334;51.366;0.020;2022-11-03T12:59:04;12.30;99.90
31759;DHT22;36334;51.366;0.020;2022-11-03T13:01:50;12.40;99.90
31759;DHT22;36334;51.366;0.020;2022-11-03T13:04:36;12.40;99.90
31759;DHT22;36334;51.366;0.020;2022-11-03T13:07:23;12.50;99.90
31759;DHT22;36334;51.366;0.020;2022-11-03T13:10:18;12.50;99.90
31759;DHT22;36334;51.366;0.020;2022-11-03T13:13:04;12.50;99.90
31759;DHT22;36334;51.366;0.020;2022-11-03T13:15:52;12.40;99.90
31759;DHT22;36334;51.366;0.020;2022-11-03T13:18:39;12.40;99.90
31759;DHT22;36334;51.366;0.020;2022-11-03T13:21:25;12.40;99.90
31759;DHT22;36334;51.366;0.020;2022-11-03T13:24:11;12.40;99.90
31759;DHT22;36334;51.366;0.020;2022-11-03T13:26:57;12.40;99.90
31759;DHT22;36334;51.366;0.020;2022-11-03T13:29:46;12.30;99.90
31759;DHT22;36334;51.366;0.020;2022-11-03T13:32:32;12.30;99.90
31759;DHT22;36334;51.366;0.020;2022-11-03T13:35:18;12.30;99.90
31759;DHT22;36334;51.366;0.020;2022-11-03T13:38:05;12.20;99.90
31759;DHT22;36334;51.366;0.020;2022-11-03T13:40:51;12.10;99.90
31759;DHT22;36334;51.366;0.020;2022-11-03T13:43:42;12.10;99.90
31759;DHT22;36334;51.366;0.020;2022-11-03T13:46:28;11.90;99.90
31759;DHT22;36334;51.366;0.020;2022-11-03T13:49:17;11.90;99.90
31759;DHT22;36334;51.366;0.020;2022-11-03T13:52:24;11.80;99.90
31759;DHT22;36334;51.366;0.020;2022-11-03T13:55:11;11.80;99.90
31759;DHT22;36334;51.366;0.020;2022-11-03T13:58:17;11.80;99.90
31759;DHT22;36334;51.366;0.020;2022-11-03T14:01:23;11.70;99.90
31759;DHT22;36334;51.366;0.020;2022-11-03T14:04:10;11.70;99.90
31759;DHT22;36334;51.366;0.020;2022-11-03T14:07:17;11.70;99.90
31759;DHT22;36334;51.366;0.020;2022-11-03T14:10:04;11.70;99.90
31759;DHT22;36334;51.366;0.020;2022-11-03T14:12:50;11.70;99.90
31759;DHT22;36334;51.366;0.020;2022-11-03T14:15:36;11.60;99.90
31759;DHT22;36334;51.366;0.020;2022-11-03T14:18:23;11.70;99.90
31759;DHT22;36334;51.366;0.020;2022-11-03T14:21:09;11.80;99.90
31759;DHT22;36334;51.366;0.020;2022-11-03T14:23:57;11.90;99.90
31759;DHT22;36334;51.366;0.020;2022-11-03T14:26:43;12.00;99.90
31759;DHT22;36334;51.366;0.020;2022-11-03T14:29:29;12.10;99.90
31759;DHT22;36334;51.366;0.020;2022-11-03T14:32:17;12.20;99.90
31759;DHT22;36334;51.366;0.020;2022-11-03T14:35:04;12.30;99.90
31759;DHT22;36334;51.366;0.020;2022-11-03T14:37:50;12.30;99.90
31759;DHT22;36334;51.366;0.020;2022-11-03T14:40:37;12.20;99.90
31759;DHT22;36334;51.366;0.020;2022-11-03T14:43:41;12.20;99.90
31759;DHT22;36334;51.366;0.020;2022-11-03T14:46:29;12.30;99.90
31759;DHT22;36334;51.366;0.020;2022-11-03T14:49:15;12.40;99.90
31759;DHT22;36334;51.366;0.020;2022-11-03T14:52:05;12.50;99.90
31759;DHT22;36334;51.366;0.020;2022-11-03T14:54:53;12.60;99.90
31759;DHT22;36334;51.366;0.020;2022-11-03T14:57:40;12.60;99.90
31759;DHT22;36334;51.366;0.020;2022-11-03T15:00:26;12.70;99.90
31759;DHT22;36334;51.366;0.020;2022-11-03T15:03:12;12.60;99.90
31759;DHT22;36334;51.366;0.020;2022-11-03T15:05:58;12.60;99.90
31759;DHT22;36334;51.366;0.020;2022-11-03T15:08:44;12.50;99.90
31759;DHT22;36334;51.366;0.020;2022-11-03T15:11:30;12.40;99.90
31759;DHT22;36334;51.366;0.020;2022-11-03T15:14:16;12.40;99.90
31759;DHT22;36334;51.366;0.020;2022-11-03T15:17:06;12.30;99.90
31759;DHT22;36334;51.366;0.020;2022-11-03T15:19:51;12.20;99.90
31759;DHT22;36334;51.366;0.020;2022-11-03T15:22:37;12.20;99.90
31759;DHT22;36334;51.366;0.020;2022-11-03T15:25:44;12.10;99.90
31759;DHT22;36334;51.366;0.020;2022-11-03T15:28:30;12.10;99.90
31759;DHT22;36334;51.366;0.020;2022-11-03T15:31:16;12.10;99.90
31759;DHT22;36334;51.366;0.020;2022-11-03T15:34:02;12.10;99.90
31759;DHT22;36334;51.366;0.020;2022-11-03T15:36:53;12.10;99.90
31759;DHT22;36334;51.366;0.020;2022-11-03T15:39:39;12.10;99.90
31759;DHT22;36334;51.366;0.020;2022-11-03T15:42:25;12.10;99.90
31759;DHT22;36334;51.366;0.020;2022-11-03T15:45:12;12.00;99.90
31759;DHT22;36334;51.366;0.020;2022-11-03T15:47:59;12.00;99.90
31759;DHT22;36334;51.366;0.020;2022-11-03T15:50:46;11.90;99.90
31759;DHT22;36334;51.366;0.020;2022-11-03T15:53:32;11.80;99.90
31759;DHT22;36334;51.366;0.020;2022-11-03T15:56:18;11.80;99.90
31759;DHT22;36334;51.366;0.020;2022-11-03T15:59:04;11.80;99.90
31759;DHT22;36334;51.366;0.020;2022-11-03T16:01:50;11.80;99.90
31759;DHT22;36334;51.366;0.020;2022-11-03T16:04:36;11.70;99.90
31759;DHT22;36334;51.366;0.020;2022-11-03T16:07:22;11.70;99.90
31759;DHT22;36334;51.366;0.020;2022-11-03T16:10:09;11.50;99.90
31759;DHT22;36334;51.366;0.020;2022-11-03T16:12:55;11.40;99.90
31759;DHT22;36334;51.366;0.020;2022-11-03T16:15:42;11.30;99.90
31759;DHT22;36334;51.366;0.020;2022-11-03T16:18:28;11.20;99.90
31759;DHT22;36334;51.366;0.020;2022-11-03T16:21:14;11.10;99.90
31759;DHT22;36334;51.366;0.020;2022-11-03T16:24:02;11.00;99.90
31759;DHT22;36334;51.366;0.020;2022-11-03T16:26:48;10.90;99.90
31759;DHT22;36334;51.366;0.020;2022-11-03T16:29:35;10.80;99.90
31759;DHT22;36334;51.366;0.020;2022-11-03T16:32:21;10.70;99.90
31759;DHT22;36334;51.366;0.020;2022-11-03T16:35:07;10.70;99.90
31759;DHT22;36334;51.366;0.020;2022-11-03T16:37:54;10.60;99.90
31759;DHT22;36334;51.366;0.020;2022-11-03T16:40:41;10.40;99.90
31759;DHT22;36334;51.366;0.020;2022-11-03T16:43:27;10.50;99.90
31759;DHT22;36334;51.366;0.020;2022-11-03T16:46:13;10.40;99.90
31759;DHT22;36334;51.366;0.020;2022-11-03T16:48:59;10.30;99.90
31759;DHT22;36334;51.366;0.020;2022-11-03T16:51:45;10.30;99.90
31759;DHT22;36334;51.366;0.020;2022-11-03T16:54:31;10.20;99.90
31759;DHT22;36334;51.366;0.020;2022-11-03T16:57:17;10.20;99.90
31759;DHT22;36334;51.366;0.020;2022-11-03T17:00:05;10.10;99.90
31759;DHT22;36334;51.366;0.020;2022-11-03T17:02:52;10.10;99.90
31759;DHT22;36334;51.366;0.020;2022-11-03T17:05:38;10.00;99.90
31759;DHT22;36334;51.366;0.020;2022-11-03T17:08:24;10.00;99.90
31759;DHT22;36334;51.366;0.020;2022-11-03T17:11:30;9.90;99.90
31759;DHT22;36334;51.366;0.020;2022-11-03T17:14:22;9.90;99.90
31759;DHT22;36334;51.366;0.020;2022-11-03T17:17:09;9.80;99.90
31759;DHT22;36334;51.366;0.020;2022-11-03T17:19:55;9.80;99.90
31759;DHT22;36334;51.366;0.020;2022-11-03T17:22:41;9.70;99.90
31759;DHT22;36334;51.366;0.020;2022-11-03T17:25:27;9.70;99.90
31759;DHT22;36334;51.366;0.020;2022-11-03T17:28:13;9.60;99.90
31759;DHT22;36334;51.366;0.020;2022-11-03T17:31:07;9.60;99.90
31759;DHT22;36334;51.366;0.020;2022-11-03T17:33:54;9.50;99.90
31759;DHT22;36334;51.366;0.020;2022-11-03T17:36:42;9.50;99.90
31759;DHT22;36334;51.366;0.020;2022-11-03T17:39:31;9.50;99.90
31759;DHT22;36334;51.366;0.020;2022-11-03T17:42:19;9.40;99.90
31759;DHT22;36334;51.366;0.020;2022-11-03T17:45:12;9.40;99.90
31759;DHT22;36334;51.366;0.020;2022-11-03T17:47:59;9.30;99.90
31759;DHT22;36334;51.366;0.020;2022-11-03T17:50:47;9.30;99.90
31759;DHT22;36334;51.366;0.020;2022-11-03T17:53:33;9.20;99.90
31759;DHT22;36334;51.366;0.020;2022-11-03T17:56:20;9.10;99.90
31759;DHT22;36334;51.366;0.020;2022-11-03T17:59:15;9.10;99.90
31759;DHT22;36334;51.366;0.020;2022-11-03T18:02:01;9.00;99.90
31759;DHT22;36334;51.366;0.020;2022-11-03T18:08:05;9.00;99.90
31759;DHT22;36334;51.366;0.020;2022-11-03T18:10:55;8.90;99.90
31759;DHT22;36334;51.366;0.020;2022-11-03T18:13:41;8.90;99.90
31759;DHT22;36334;51.366;0.020;2022-11-03T18:16:29;8.80;99.90
31759;DHT22;36334;51.366;0.020;2022-11-03T18:19:17;8.80;99.90
31759;DHT22;36334;51.366;0.020;2022-11-03T18:22:04;8.70;99.90
31759;DHT22;36334;51.366;0.020;2022-11-03T18:24:50;8.70;99.90
31759;DHT22;36334;51.366;0.020;2022-11-03T18:27:37;8.70;99.90
31759;DHT22;36334;51.366;0.020;2022-11-03T18:30:23;8.60;99.90
31759;DHT22;36334;51.366;0.020;2022-11-03T18:33:29;8.60;99.90
31759;DHT22;36334;51.366;0.020;2022-11-03T18:36:16;8.60;99.90
31759;DHT22;36334;51.366;0.020;2022-11-03T18:39:04;8.60;99.90
31759;DHT22;36334;51.366;0.020;2022-11-03T18:41:50;8.60;99.90
31759;DHT22;36334;51.366;0.020;2022-11-03T18:44:37;8.60;99.90
31759;DHT22;36334;51.366;0.020;2022-11-03T18:47:24;8.60;99.90
31759;DHT22;36334;51.366;0.020;2022-11-03T18:50:15;8.50;99.90